EDW18A EICK-LSZH
Flight info
| Callsign | EDW18A |
|---|---|
| Flight time | 1h 51m |
| Altitude | 38000 |
| Route | EICK ELTI1N ELTIG DCT NORLA DCT PEWBI DCT OXLOW M140 SAM L620 MID UL612 VEULE DCT TEPRI UN491 POGZI DCT GELTA DCT MANAG DCT PEVIT DCT BLM BLM3G LSZH |
| Aircraft | A20N/M-L/MCDU |
Departure
| Time | 2026-05-05 08:29 |
|---|---|
| Airport | Cork International Airport (EICK) |
Arrival
| Time | 2026-05-05 10:20 |
|---|---|
| Airport | Zürich Airport (LSZH) |
| Time | Latitude | Longitude | Altitude | Speed | Heading |
|---|---|---|---|---|---|
| 2026-05-05 08:17 | 51.84891 | -8.49076 | 504 ft | 0 kts | 70° |
| 2026-05-05 08:21 | 51.84888 | -8.49089 | 504 ft | 3 kts | 71° |
| 2026-05-05 08:22 | 51.84880 | -8.49125 | 504 ft | 3 kts | 69° |
| 2026-05-05 08:22 | 51.84875 | -8.49149 | 504 ft | 3 kts | 69° |
| 2026-05-05 08:22 | 51.84864 | -8.49195 | 504 ft | 3 kts | 69° |
| 2026-05-05 08:22 | 51.84860 | -8.49215 | 504 ft | 3 kts | 103° |
| 2026-05-05 08:23 | 51.84874 | -8.49243 | 504 ft | 3 kts | 160° |
| 2026-05-05 08:23 | 51.84888 | -8.49251 | 504 ft | 0 kts | 160° |
| 2026-05-05 08:24 | 51.84887 | -8.49251 | 504 ft | 1 kts | 160° |
| 2026-05-05 08:24 | 51.84847 | -8.49228 | 504 ft | 12 kts | 163° |
| 2026-05-05 08:24 | 51.84746 | -8.49194 | 504 ft | 17 kts | 161° |
| 2026-05-05 08:25 | 51.84628 | -8.49123 | 504 ft | 19 kts | 161° |
| 2026-05-05 08:25 | 51.84512 | -8.49057 | 504 ft | 12 kts | 160° |
| 2026-05-05 08:25 | 51.84425 | -8.49005 | 504 ft | 15 kts | 160° |
| 2026-05-05 08:25 | 51.84352 | -8.48995 | 506 ft | 9 kts | 222° |
| 2026-05-05 08:26 | 51.84322 | -8.49097 | 505 ft | 12 kts | 243° |
| 2026-05-05 08:26 | 51.84267 | -8.49189 | 505 ft | 12 kts | 181° |
| 2026-05-05 08:26 | 51.84170 | -8.49133 | 507 ft | 28 kts | 160° |
| 2026-05-05 08:26 | 51.83921 | -8.48987 | 501 ft | 41 kts | 159° |
| 2026-05-05 08:27 | 51.83649 | -8.48827 | 501 ft | 41 kts | 160° |
| 2026-05-05 08:27 | 51.83383 | -8.48672 | 503 ft | 34 kts | 159° |
| 2026-05-05 08:27 | 51.83288 | -8.48558 | 503 ft | 17 kts | 114° |
| 2026-05-05 08:27 | 51.83253 | -8.48516 | 503 ft | 5 kts | 188° |
| 2026-05-05 08:28 | 51.83249 | -8.48597 | 505 ft | 7 kts | 323° |
| 2026-05-05 08:28 | 51.83316 | -8.48629 | 503 ft | 19 kts | 341° |
| 2026-05-05 08:28 | 51.83715 | -8.48868 | 499 ft | 100 kts | 340° |
| 2026-05-05 08:28 | 51.84571 | -8.49373 | 544 ft | 157 kts | 340° |
| 2026-05-05 08:29 | 51.85573 | -8.49958 | 1371 ft | 151 kts | 340° |
| 2026-05-05 08:29 | 51.86593 | -8.50542 | 2134 ft | 162 kts | 343° |
| 2026-05-05 08:29 | 51.87694 | -8.51086 | 2841 ft | 171 kts | 345° |
| 2026-05-05 08:30 | 51.90108 | -8.51970 | 3605 ft | 182 kts | 8° |
| 2026-05-05 08:30 | 51.91220 | -8.51028 | 3879 ft | 187 kts | 46° |
| 2026-05-05 08:30 | 51.91730 | -8.49069 | 4094 ft | 201 kts | 86° |
| 2026-05-05 08:30 | 51.91444 | -8.46680 | 4422 ft | 234 kts | 109° |
| 2026-05-05 08:31 | 51.90771 | -8.44195 | 4708 ft | 264 kts | 114° |
| 2026-05-05 08:31 | 51.89954 | -8.41467 | 4973 ft | 272 kts | 114° |
| 2026-05-05 08:31 | 51.89158 | -8.38675 | 5227 ft | 274 kts | 113° |
| 2026-05-05 08:31 | 51.88403 | -8.35829 | 5490 ft | 275 kts | 112° |
| 2026-05-05 08:32 | 51.87677 | -8.32959 | 5758 ft | 276 kts | 111° |
| 2026-05-05 08:32 | 51.87032 | -8.30350 | 6178 ft | 279 kts | 111° |
| 2026-05-05 08:32 | 51.86311 | -8.27418 | 6813 ft | 282 kts | 111° |
| 2026-05-05 08:32 | 51.85585 | -8.24462 | 7430 ft | 284 kts | 111° |
| 2026-05-05 08:33 | 51.84848 | -8.21478 | 8065 ft | 287 kts | 111° |
| 2026-05-05 08:33 | 51.84102 | -8.18461 | 8710 ft | 289 kts | 111° |
| 2026-05-05 08:33 | 51.83359 | -8.15464 | 9359 ft | 292 kts | 111° |
| 2026-05-05 08:33 | 51.82598 | -8.12402 | 10022 ft | 295 kts | 111° |
| 2026-05-05 08:34 | 51.81815 | -8.09257 | 10563 ft | 311 kts | 111° |
| 2026-05-05 08:34 | 51.80979 | -8.05895 | 10862 ft | 334 kts | 111° |
| 2026-05-05 08:34 | 51.80080 | -8.02290 | 11126 ft | 357 kts | 111° |
| 2026-05-05 08:34 | 51.79118 | -7.98445 | 11386 ft | 378 kts | 111° |
| 2026-05-05 08:35 | 51.78106 | -7.94410 | 11641 ft | 397 kts | 111° |
| 2026-05-05 08:35 | 51.77098 | -7.90396 | 11887 ft | 409 kts | 111° |
| 2026-05-05 08:35 | 51.76016 | -7.86101 | 12147 ft | 410 kts | 111° |
| 2026-05-05 08:35 | 51.75115 | -7.81730 | 12403 ft | 411 kts | 103° |
| 2026-05-05 08:36 | 51.74497 | -7.77214 | 12667 ft | 413 kts | 101° |
| 2026-05-05 08:36 | 51.73888 | -7.72652 | 12928 ft | 415 kts | 101° |
| 2026-05-05 08:36 | 51.73281 | -7.68152 | 13189 ft | 416 kts | 101° |
| 2026-05-05 08:36 | 51.72656 | -7.63553 | 13456 ft | 418 kts | 101° |
| 2026-05-05 08:37 | 51.72031 | -7.58987 | 13723 ft | 420 kts | 102° |
| 2026-05-05 08:37 | 51.71398 | -7.54385 | 13983 ft | 422 kts | 101° |
| 2026-05-05 08:37 | 51.70756 | -7.49721 | 14221 ft | 423 kts | 102° |
| 2026-05-05 08:37 | 51.70122 | -7.45136 | 14460 ft | 424 kts | 102° |
| 2026-05-05 08:38 | 51.69478 | -7.40493 | 14697 ft | 425 kts | 102° |
| 2026-05-05 08:38 | 51.68831 | -7.35841 | 14946 ft | 426 kts | 102° |
| 2026-05-05 08:38 | 51.68178 | -7.31162 | 15194 ft | 426 kts | 102° |
| 2026-05-05 08:38 | 51.67529 | -7.26523 | 15443 ft | 428 kts | 102° |
| 2026-05-05 08:39 | 51.66865 | -7.21794 | 15697 ft | 428 kts | 102° |
| 2026-05-05 08:39 | 51.66210 | -7.17140 | 15949 ft | 430 kts | 102° |
| 2026-05-05 08:39 | 51.65539 | -7.12395 | 16200 ft | 431 kts | 102° |
| 2026-05-05 08:39 | 51.64877 | -7.07723 | 16460 ft | 433 kts | 102° |
| 2026-05-05 08:40 | 51.64202 | -7.02974 | 16716 ft | 435 kts | 102° |
| 2026-05-05 08:40 | 51.63523 | -6.98218 | 16974 ft | 436 kts | 102° |
| 2026-05-05 08:40 | 51.62837 | -6.93423 | 17245 ft | 437 kts | 102° |
| 2026-05-05 08:40 | 51.62153 | -6.88657 | 17507 ft | 439 kts | 102° |
| 2026-05-05 08:41 | 51.61458 | -6.83892 | 17774 ft | 441 kts | 103° |
| 2026-05-05 08:41 | 51.60706 | -6.79089 | 18047 ft | 443 kts | 104° |
| 2026-05-05 08:41 | 51.59933 | -6.74268 | 18322 ft | 445 kts | 104° |
| 2026-05-05 08:41 | 51.59154 | -6.69416 | 18563 ft | 447 kts | 104° |
| 2026-05-05 08:42 | 51.58384 | -6.64602 | 18796 ft | 449 kts | 104° |
| 2026-05-05 08:42 | 51.57602 | -6.59707 | 19038 ft | 450 kts | 104° |
| 2026-05-05 08:42 | 51.56828 | -6.54864 | 19276 ft | 452 kts | 104° |
| 2026-05-05 08:42 | 51.56036 | -6.49912 | 19523 ft | 454 kts | 104° |
| 2026-05-05 08:43 | 51.55254 | -6.45040 | 19764 ft | 455 kts | 104° |
| 2026-05-05 08:43 | 51.54461 | -6.40112 | 20018 ft | 457 kts | 104° |
| 2026-05-05 08:43 | 51.53662 | -6.35171 | 20258 ft | 457 kts | 104° |
| 2026-05-05 08:43 | 51.52858 | -6.30203 | 20507 ft | 459 kts | 105° |
| 2026-05-05 08:44 | 51.52049 | -6.25223 | 20766 ft | 460 kts | 105° |
| 2026-05-05 08:44 | 51.51241 | -6.20269 | 21021 ft | 461 kts | 105° |
| 2026-05-05 08:44 | 51.50429 | -6.15300 | 21280 ft | 462 kts | 105° |
| 2026-05-05 08:44 | 51.49607 | -6.10282 | 21537 ft | 463 kts | 105° |
| 2026-05-05 08:45 | 51.48785 | -6.05283 | 21804 ft | 464 kts | 105° |
| 2026-05-05 08:45 | 51.47964 | -6.00306 | 22068 ft | 465 kts | 105° |
| 2026-05-05 08:45 | 51.47130 | -5.95266 | 22325 ft | 466 kts | 105° |
| 2026-05-05 08:45 | 51.46294 | -5.90228 | 22598 ft | 467 kts | 105° |
| 2026-05-05 08:46 | 51.45456 | -5.85189 | 22868 ft | 468 kts | 105° |
| 2026-05-05 08:46 | 51.44618 | -5.80167 | 23143 ft | 469 kts | 105° |
| 2026-05-05 08:46 | 51.43772 | -5.75114 | 23420 ft | 471 kts | 105° |
| 2026-05-05 08:46 | 51.42918 | -5.70029 | 23687 ft | 472 kts | 105° |
| 2026-05-05 08:47 | 51.42061 | -5.64936 | 23923 ft | 473 kts | 105° |
| 2026-05-05 08:47 | 51.41202 | -5.59847 | 24157 ft | 474 kts | 105° |
| 2026-05-05 08:47 | 51.40334 | -5.54722 | 24395 ft | 475 kts | 105° |
| 2026-05-05 08:47 | 51.39465 | -5.49605 | 24635 ft | 476 kts | 105° |
| 2026-05-05 08:48 | 51.38597 | -5.44508 | 24875 ft | 477 kts | 105° |
| 2026-05-05 08:48 | 51.37721 | -5.39383 | 25118 ft | 478 kts | 105° |
| 2026-05-05 08:48 | 51.36847 | -5.34285 | 25365 ft | 479 kts | 105° |
| 2026-05-05 08:48 | 51.35961 | -5.29133 | 25611 ft | 480 kts | 105° |
| 2026-05-05 08:49 | 51.35062 | -5.23924 | 25857 ft | 480 kts | 105° |
| 2026-05-05 08:49 | 51.34180 | -5.18823 | 26112 ft | 480 kts | 105° |
| 2026-05-05 08:49 | 51.33278 | -5.13622 | 26372 ft | 480 kts | 105° |
| 2026-05-05 08:49 | 51.32394 | -5.08538 | 26628 ft | 479 kts | 105° |
| 2026-05-05 08:50 | 51.31531 | -5.03334 | 26896 ft | 478 kts | 102° |
| 2026-05-05 08:50 | 51.31023 | -4.98334 | 27159 ft | 477 kts | 97° |
| 2026-05-05 08:50 | 51.30608 | -4.93108 | 27547 ft | 473 kts | 97° |
| 2026-05-05 08:50 | 51.30195 | -4.87892 | 28084 ft | 467 kts | 97° |
| 2026-05-05 08:51 | 51.29786 | -4.82775 | 28626 ft | 462 kts | 97° |
| 2026-05-05 08:51 | 51.29379 | -4.77737 | 29182 ft | 458 kts | 97° |
| 2026-05-05 08:51 | 51.28969 | -4.72722 | 29754 ft | 454 kts | 97° |
| 2026-05-05 08:51 | 51.28555 | -4.67703 | 30299 ft | 450 kts | 97° |
| 2026-05-05 08:52 | 51.28150 | -4.62821 | 30787 ft | 447 kts | 97° |
| 2026-05-05 08:52 | 51.27737 | -4.57882 | 31288 ft | 444 kts | 97° |
| 2026-05-05 08:52 | 51.27331 | -4.53047 | 31792 ft | 440 kts | 97° |
| 2026-05-05 08:52 | 51.26919 | -4.48163 | 32317 ft | 437 kts | 97° |
| 2026-05-05 08:53 | 51.26516 | -4.43422 | 32842 ft | 433 kts | 97° |
| 2026-05-05 08:53 | 51.26146 | -4.39078 | 33334 ft | 429 kts | 97° |
| 2026-05-05 08:53 | 51.25742 | -4.34366 | 33892 ft | 424 kts | 97° |
| 2026-05-05 08:53 | 51.25344 | -4.29757 | 34368 ft | 418 kts | 97° |
| 2026-05-05 08:54 | 51.24945 | -4.25143 | 34845 ft | 413 kts | 97° |
| 2026-05-05 08:54 | 51.24559 | -4.20690 | 35315 ft | 406 kts | 97° |
| 2026-05-05 08:54 | 51.24170 | -4.16238 | 35804 ft | 399 kts | 97° |
| 2026-05-05 08:54 | 51.23792 | -4.11922 | 36278 ft | 392 kts | 98° |
| 2026-05-05 08:55 | 51.23412 | -4.07599 | 36528 ft | 391 kts | 98° |
| 2026-05-05 08:55 | 51.23034 | -4.03320 | 36647 ft | 392 kts | 98° |
| 2026-05-05 08:55 | 51.22652 | -3.99011 | 36730 ft | 395 kts | 98° |
| 2026-05-05 08:56 | 51.21868 | -3.90226 | 36897 ft | 400 kts | 98° |
| 2026-05-05 08:56 | 51.21242 | -3.83272 | 37009 ft | 405 kts | 98° |
| 2026-05-05 08:57 | 51.20423 | -3.74242 | 37024 ft | 414 kts | 98° |
| 2026-05-05 08:57 | 51.19582 | -3.65048 | 37021 ft | 424 kts | 99° |
| 2026-05-05 08:58 | 51.18717 | -3.55677 | 37026 ft | 434 kts | 99° |
| 2026-05-05 08:58 | 51.17819 | -3.46036 | 37025 ft | 444 kts | 99° |
| 2026-05-05 08:59 | 51.16892 | -3.36181 | 37038 ft | 454 kts | 99° |
| 2026-05-05 08:59 | 51.16098 | -3.27804 | 37032 ft | 461 kts | 99° |
| 2026-05-05 09:00 | 51.15132 | -3.17706 | 37027 ft | 464 kts | 99° |
| 2026-05-05 09:00 | 51.14147 | -3.07513 | 37026 ft | 463 kts | 99° |
| 2026-05-05 09:01 | 51.13162 | -2.97408 | 37017 ft | 463 kts | 99° |
| 2026-05-05 09:01 | 51.12166 | -2.87281 | 37015 ft | 463 kts | 100° |
| 2026-05-05 09:02 | 51.11159 | -2.77147 | 37015 ft | 463 kts | 100° |
| 2026-05-05 09:02 | 51.10138 | -2.66967 | 37020 ft | 463 kts | 100° |
| 2026-05-05 09:03 | 51.09118 | -2.56885 | 37018 ft | 463 kts | 100° |
| 2026-05-05 09:03 | 51.08084 | -2.46746 | 37019 ft | 464 kts | 100° |
| 2026-05-05 09:04 | 51.07043 | -2.36638 | 37011 ft | 463 kts | 100° |
| 2026-05-05 09:04 | 51.05997 | -2.26569 | 37003 ft | 463 kts | 100° |
| 2026-05-05 09:05 | 51.04934 | -2.16427 | 36995 ft | 464 kts | 101° |
| 2026-05-05 09:05 | 51.03868 | -2.06329 | 36992 ft | 464 kts | 101° |
| 2026-05-05 09:06 | 51.02731 | -1.96290 | 36993 ft | 464 kts | 102° |
| 2026-05-05 09:06 | 51.01576 | -1.86169 | 36991 ft | 464 kts | 101° |
| 2026-05-05 09:07 | 51.00434 | -1.76080 | 36987 ft | 465 kts | 101° |
| 2026-05-05 09:07 | 50.99262 | -1.65983 | 36988 ft | 465 kts | 102° |
| 2026-05-05 09:08 | 50.98080 | -1.55924 | 36991 ft | 465 kts | 102° |
| 2026-05-05 09:08 | 50.96877 | -1.45784 | 36992 ft | 466 kts | 102° |
| 2026-05-05 09:09 | 50.96041 | -1.35610 | 36991 ft | 469 kts | 91° |
| 2026-05-05 09:09 | 50.96782 | -1.25423 | 36993 ft | 472 kts | 78° |
| 2026-05-05 09:10 | 50.97392 | -1.21152 | 36993 ft | 472 kts | 78° |
| 2026-05-05 09:10 | 50.98814 | -1.10980 | 36989 ft | 472 kts | 78° |
| 2026-05-05 09:11 | 51.00221 | -1.00753 | 36982 ft | 473 kts | 79° |
| 2026-05-05 09:11 | 51.01623 | -0.90507 | 36983 ft | 473 kts | 79° |
| 2026-05-05 09:12 | 51.03012 | -0.80278 | 36982 ft | 474 kts | 79° |
| 2026-05-05 09:12 | 51.04192 | -0.70028 | 36982 ft | 472 kts | 89° |
| 2026-05-05 09:12 | 51.04035 | -0.64811 | 36982 ft | 471 kts | 101° |
| 2026-05-05 09:13 | 51.03220 | -0.59813 | 36978 ft | 469 kts | 112° |
| 2026-05-05 09:13 | 51.01769 | -0.55161 | 36968 ft | 467 kts | 124° |
| 2026-05-05 09:13 | 50.99753 | -0.51112 | 36964 ft | 464 kts | 137° |
| 2026-05-05 09:13 | 50.97282 | -0.47859 | 36966 ft | 461 kts | 149° |
| 2026-05-05 09:14 | 50.95446 | -0.46199 | 36965 ft | 460 kts | 156° |
| 2026-05-05 09:14 | 50.89823 | -0.43345 | 36966 ft | 458 kts | 164° |
| 2026-05-05 09:15 | 50.83963 | -0.39352 | 36967 ft | 460 kts | 152° |
| 2026-05-05 09:15 | 50.78538 | -0.34024 | 36966 ft | 461 kts | 148° |
| 2026-05-05 09:16 | 50.73200 | -0.28370 | 36966 ft | 461 kts | 148° |
| 2026-05-05 09:16 | 50.67862 | -0.22725 | 36963 ft | 461 kts | 148° |
| 2026-05-05 09:17 | 50.62551 | -0.17149 | 36962 ft | 460 kts | 148° |
| 2026-05-05 09:17 | 50.57202 | -0.11555 | 36955 ft | 460 kts | 148° |
| 2026-05-05 09:18 | 50.51960 | -0.06089 | 36952 ft | 459 kts | 148° |
| 2026-05-05 09:18 | 50.46670 | -0.00587 | 36952 ft | 459 kts | 148° |
| 2026-05-05 09:19 | 50.41336 | 0.04946 | 36948 ft | 458 kts | 148° |
| 2026-05-05 09:19 | 50.36026 | 0.10437 | 36945 ft | 457 kts | 148° |
| 2026-05-05 09:20 | 50.30700 | 0.15932 | 36942 ft | 456 kts | 149° |
| 2026-05-05 09:20 | 50.25432 | 0.21352 | 36942 ft | 455 kts | 149° |
| 2026-05-05 09:21 | 50.20115 | 0.26806 | 36938 ft | 455 kts | 149° |
| 2026-05-05 09:21 | 50.14843 | 0.32225 | 36939 ft | 454 kts | 149° |
| 2026-05-05 09:22 | 50.09563 | 0.37649 | 36933 ft | 453 kts | 149° |
| 2026-05-05 09:22 | 50.04319 | 0.43019 | 36931 ft | 453 kts | 149° |
| 2026-05-05 09:23 | 49.99065 | 0.48382 | 36929 ft | 452 kts | 149° |
| 2026-05-05 09:23 | 49.93770 | 0.53773 | 36925 ft | 451 kts | 149° |
| 2026-05-05 09:24 | 49.88548 | 0.59075 | 36920 ft | 451 kts | 148° |
| 2026-05-05 09:24 | 49.83710 | 0.65271 | 36915 ft | 454 kts | 136° |
| 2026-05-05 09:25 | 49.79435 | 0.72552 | 36918 ft | 454 kts | 135° |
| 2026-05-05 09:25 | 49.75198 | 0.79754 | 36911 ft | 454 kts | 135° |
| 2026-05-05 09:26 | 49.70934 | 0.86958 | 36910 ft | 453 kts | 135° |
| 2026-05-05 09:26 | 49.66676 | 0.94125 | 36916 ft | 453 kts | 135° |
| 2026-05-05 09:27 | 49.62404 | 1.01297 | 36911 ft | 453 kts | 135° |
| 2026-05-05 09:27 | 49.58144 | 1.08430 | 36915 ft | 453 kts | 135° |
| 2026-05-05 09:28 | 49.53888 | 1.15536 | 36907 ft | 452 kts | 135° |
| 2026-05-05 09:28 | 49.49612 | 1.22654 | 36915 ft | 452 kts | 135° |
| 2026-05-05 09:29 | 49.45338 | 1.29752 | 36905 ft | 452 kts | 135° |
| 2026-05-05 09:29 | 49.41047 | 1.36857 | 36906 ft | 451 kts | 135° |
| 2026-05-05 09:30 | 49.36783 | 1.43897 | 36898 ft | 451 kts | 135° |
| 2026-05-05 09:30 | 49.32502 | 1.50948 | 36900 ft | 451 kts | 135° |
| 2026-05-05 09:31 | 49.28210 | 1.57995 | 36883 ft | 451 kts | 135° |
| 2026-05-05 09:31 | 49.23934 | 1.64999 | 36879 ft | 451 kts | 135° |
| 2026-05-05 09:32 | 49.19659 | 1.71980 | 36870 ft | 451 kts | 135° |
| 2026-05-05 09:32 | 49.15351 | 1.78998 | 36873 ft | 450 kts | 135° |
| 2026-05-05 09:33 | 49.11074 | 1.85946 | 36883 ft | 450 kts | 135° |
| 2026-05-05 09:33 | 49.06768 | 1.92922 | 36888 ft | 450 kts | 136° |
| 2026-05-05 09:34 | 49.02465 | 1.99874 | 36887 ft | 450 kts | 135° |
| 2026-05-05 09:34 | 48.98591 | 2.06117 | 36883 ft | 450 kts | 135° |
| 2026-05-05 09:35 | 48.95023 | 2.11854 | 36877 ft | 449 kts | 135° |
| 2026-05-05 09:35 | 48.88710 | 2.21973 | 36854 ft | 449 kts | 136° |
| 2026-05-05 09:36 | 48.84417 | 2.28832 | 36854 ft | 449 kts | 136° |
| 2026-05-05 09:36 | 48.80126 | 2.35668 | 36856 ft | 449 kts | 136° |
| 2026-05-05 09:37 | 48.75788 | 2.42561 | 36857 ft | 449 kts | 136° |
| 2026-05-05 09:37 | 48.71475 | 2.49396 | 36857 ft | 449 kts | 136° |
| 2026-05-05 09:38 | 48.67150 | 2.56234 | 36853 ft | 450 kts | 136° |
| 2026-05-05 09:38 | 48.62818 | 2.63064 | 36857 ft | 450 kts | 136° |
| 2026-05-05 09:39 | 48.58483 | 2.69924 | 36853 ft | 451 kts | 132° |
| 2026-05-05 09:39 | 48.56686 | 2.73794 | 36852 ft | 455 kts | 120° |
| 2026-05-05 09:39 | 48.55442 | 2.78257 | 36857 ft | 459 kts | 108° |
| 2026-05-05 09:40 | 48.54849 | 2.82974 | 36853 ft | 464 kts | 97° |
| 2026-05-05 09:40 | 48.54679 | 2.87871 | 36846 ft | 466 kts | 95° |
| 2026-05-05 09:40 | 48.54444 | 2.97645 | 36846 ft | 465 kts | 95° |
| 2026-05-05 09:41 | 48.54147 | 3.07402 | 36841 ft | 465 kts | 95° |
| 2026-05-05 09:41 | 48.53811 | 3.17131 | 36837 ft | 465 kts | 96° |
| 2026-05-05 09:42 | 48.53459 | 3.26930 | 36834 ft | 465 kts | 96° |
| 2026-05-05 09:42 | 48.53103 | 3.36622 | 36835 ft | 466 kts | 96° |
| 2026-05-05 09:43 | 48.52737 | 3.46374 | 36837 ft | 466 kts | 96° |
| 2026-05-05 09:43 | 48.52361 | 3.56166 | 36837 ft | 466 kts | 96° |
| 2026-05-05 09:44 | 48.51978 | 3.65940 | 36840 ft | 466 kts | 96° |
| 2026-05-05 09:44 | 48.51587 | 3.75690 | 36844 ft | 466 kts | 96° |
| 2026-05-05 09:45 | 48.51187 | 3.85461 | 36848 ft | 467 kts | 96° |
| 2026-05-05 09:45 | 48.50773 | 3.95241 | 36844 ft | 466 kts | 98° |
| 2026-05-05 09:46 | 48.49397 | 4.04722 | 36850 ft | 461 kts | 113° |
| 2026-05-05 09:46 | 48.46637 | 4.13357 | 36851 ft | 458 kts | 120° |
| 2026-05-05 09:47 | 48.43688 | 4.21890 | 36854 ft | 458 kts | 120° |
| 2026-05-05 09:47 | 48.40745 | 4.30394 | 36851 ft | 458 kts | 120° |
| 2026-05-05 09:48 | 48.37788 | 4.38898 | 36846 ft | 458 kts | 120° |
| 2026-05-05 09:48 | 48.34837 | 4.47350 | 36844 ft | 458 kts | 121° |
| 2026-05-05 09:49 | 48.31850 | 4.55881 | 36845 ft | 458 kts | 121° |
| 2026-05-05 09:49 | 48.28883 | 4.64322 | 36846 ft | 458 kts | 121° |
| 2026-05-05 09:50 | 48.25903 | 4.72777 | 36847 ft | 458 kts | 121° |
| 2026-05-05 09:50 | 48.22914 | 4.81227 | 36848 ft | 458 kts | 121° |
| 2026-05-05 09:51 | 48.19925 | 4.89653 | 36848 ft | 459 kts | 121° |
| 2026-05-05 09:51 | 48.16921 | 4.98092 | 36850 ft | 459 kts | 121° |
| 2026-05-05 09:52 | 48.13910 | 5.06522 | 36858 ft | 459 kts | 121° |
| 2026-05-05 09:52 | 48.10913 | 5.15039 | 36858 ft | 460 kts | 117° |
| 2026-05-05 09:53 | 48.08849 | 5.24142 | 36858 ft | 465 kts | 109° |
| 2026-05-05 09:53 | 48.07539 | 5.31091 | 36859 ft | 465 kts | 109° |
| 2026-05-05 09:54 | 48.05744 | 5.40496 | 36820 ft | 462 kts | 109° |
| 2026-05-05 09:54 | 48.04863 | 5.45082 | 36526 ft | 460 kts | 109° |
| 2026-05-05 09:54 | 48.03984 | 5.49650 | 35971 ft | 457 kts | 110° |
| 2026-05-05 09:55 | 48.03388 | 5.52740 | 35547 ft | 454 kts | 110° |
| 2026-05-05 09:55 | 48.02559 | 5.57033 | 34961 ft | 452 kts | 110° |
| 2026-05-05 09:55 | 48.01683 | 5.61553 | 34342 ft | 453 kts | 110° |
| 2026-05-05 09:55 | 48.00803 | 5.66079 | 33841 ft | 453 kts | 111° |
| 2026-05-05 09:56 | 47.99928 | 5.70576 | 33173 ft | 449 kts | 111° |
| 2026-05-05 09:56 | 47.99061 | 5.75017 | 32497 ft | 445 kts | 111° |
| 2026-05-05 09:56 | 47.98208 | 5.79375 | 31844 ft | 441 kts | 110° |
| 2026-05-05 09:56 | 47.97355 | 5.83762 | 31199 ft | 437 kts | 110° |
| 2026-05-05 09:57 | 47.96503 | 5.88091 | 30574 ft | 434 kts | 110° |
| 2026-05-05 09:57 | 47.95651 | 5.92397 | 29959 ft | 430 kts | 110° |
| 2026-05-05 09:57 | 47.94806 | 5.96655 | 29250 ft | 426 kts | 110° |
| 2026-05-05 09:57 | 47.93977 | 6.00831 | 28577 ft | 423 kts | 110° |
| 2026-05-05 09:58 | 47.93133 | 6.05074 | 27877 ft | 420 kts | 110° |
| 2026-05-05 09:58 | 47.92306 | 6.09227 | 27212 ft | 416 kts | 110° |
| 2026-05-05 09:58 | 47.91483 | 6.13348 | 26565 ft | 413 kts | 110° |
| 2026-05-05 09:58 | 47.90679 | 6.17366 | 26045 ft | 407 kts | 109° |
| 2026-05-05 09:59 | 47.89877 | 6.21375 | 25548 ft | 402 kts | 109° |
| 2026-05-05 09:59 | 47.89081 | 6.25340 | 25060 ft | 396 kts | 109° |
| 2026-05-05 09:59 | 47.88294 | 6.29252 | 24575 ft | 391 kts | 109° |
| 2026-05-05 09:59 | 47.87516 | 6.33115 | 24104 ft | 387 kts | 109° |
| 2026-05-05 10:00 | 47.86821 | 6.36575 | 23682 ft | 383 kts | 109° |
| 2026-05-05 10:00 | 47.86114 | 6.40393 | 23151 ft | 383 kts | 102° |
| 2026-05-05 10:00 | 47.85748 | 6.44320 | 22739 ft | 383 kts | 99° |
| 2026-05-05 10:00 | 47.85415 | 6.48254 | 22290 ft | 383 kts | 99° |
| 2026-05-05 10:01 | 47.85086 | 6.52186 | 21860 ft | 381 kts | 99° |
| 2026-05-05 10:01 | 47.84755 | 6.56095 | 21466 ft | 380 kts | 99° |
| 2026-05-05 10:01 | 47.84420 | 6.59984 | 21073 ft | 378 kts | 100° |
| 2026-05-05 10:01 | 47.84086 | 6.63822 | 20697 ft | 378 kts | 100° |
| 2026-05-05 10:02 | 47.83742 | 6.67748 | 20310 ft | 378 kts | 100° |
| 2026-05-05 10:02 | 47.83400 | 6.71624 | 19935 ft | 377 kts | 100° |
| 2026-05-05 10:02 | 47.83060 | 6.75451 | 19571 ft | 376 kts | 99° |
| 2026-05-05 10:02 | 47.82717 | 6.79311 | 19202 ft | 376 kts | 99° |
| 2026-05-05 10:03 | 47.82373 | 6.83156 | 18841 ft | 375 kts | 99° |
| 2026-05-05 10:03 | 47.82029 | 6.87002 | 18494 ft | 374 kts | 99° |
| 2026-05-05 10:03 | 47.81684 | 6.90837 | 18143 ft | 373 kts | 99° |
| 2026-05-05 10:03 | 47.81340 | 6.94661 | 17735 ft | 371 kts | 99° |
| 2026-05-05 10:04 | 47.80997 | 6.98452 | 17340 ft | 369 kts | 99° |
| 2026-05-05 10:04 | 47.80645 | 7.02237 | 16947 ft | 367 kts | 99° |
| 2026-05-05 10:04 | 47.80301 | 7.05981 | 16551 ft | 365 kts | 99° |
| 2026-05-05 10:04 | 47.79965 | 7.09697 | 16169 ft | 361 kts | 99° |
| 2026-05-05 10:05 | 47.79629 | 7.13393 | 15795 ft | 359 kts | 99° |
| 2026-05-05 10:05 | 47.79294 | 7.17050 | 15524 ft | 356 kts | 99° |
| 2026-05-05 10:05 | 47.78960 | 7.20664 | 15276 ft | 356 kts | 99° |
| 2026-05-05 10:05 | 47.78623 | 7.24299 | 15037 ft | 355 kts | 100° |
| 2026-05-05 10:06 | 47.78283 | 7.27945 | 14793 ft | 354 kts | 100° |
| 2026-05-05 10:06 | 47.77945 | 7.31562 | 14555 ft | 353 kts | 100° |
| 2026-05-05 10:06 | 47.77607 | 7.35167 | 14216 ft | 353 kts | 100° |
| 2026-05-05 10:06 | 47.77268 | 7.38776 | 13756 ft | 352 kts | 100° |
| 2026-05-05 10:07 | 47.76928 | 7.42372 | 13229 ft | 350 kts | 100° |
| 2026-05-05 10:07 | 47.76590 | 7.45942 | 12709 ft | 348 kts | 100° |
| 2026-05-05 10:07 | 47.76254 | 7.49481 | 12191 ft | 345 kts | 100° |
| 2026-05-05 10:07 | 47.75918 | 7.53005 | 11683 ft | 342 kts | 100° |
| 2026-05-05 10:08 | 47.75585 | 7.56487 | 11193 ft | 340 kts | 100° |
| 2026-05-05 10:08 | 47.75252 | 7.59953 | 10701 ft | 337 kts | 101° |
| 2026-05-05 10:08 | 47.74919 | 7.63393 | 10210 ft | 335 kts | 101° |
| 2026-05-05 10:08 | 47.74590 | 7.66799 | 9726 ft | 332 kts | 101° |
| 2026-05-05 10:09 | 47.74262 | 7.70185 | 9189 ft | 327 kts | 101° |
| 2026-05-05 10:09 | 47.73943 | 7.73469 | 8663 ft | 317 kts | 100° |
| 2026-05-05 10:09 | 47.73635 | 7.76641 | 8250 ft | 304 kts | 100° |
| 2026-05-05 10:09 | 47.73336 | 7.79688 | 7872 ft | 292 kts | 100° |
| 2026-05-05 10:10 | 47.73048 | 7.82622 | 7486 ft | 281 kts | 100° |
| 2026-05-05 10:10 | 47.72772 | 7.85435 | 7139 ft | 271 kts | 100° |
| 2026-05-05 10:10 | 47.72498 | 7.88183 | 6943 ft | 270 kts | 100° |
| 2026-05-05 10:10 | 47.72223 | 7.90932 | 6887 ft | 268 kts | 100° |
| 2026-05-05 10:11 | 47.71949 | 7.93670 | 6880 ft | 269 kts | 100° |
| 2026-05-05 10:11 | 47.71675 | 7.96434 | 6679 ft | 270 kts | 100° |
| 2026-05-05 10:11 | 47.71402 | 7.99169 | 6434 ft | 265 kts | 100° |
| 2026-05-05 10:11 | 47.71134 | 8.01836 | 6185 ft | 266 kts | 100° |
| 2026-05-05 10:12 | 47.70862 | 8.04548 | 6019 ft | 263 kts | 99° |
| 2026-05-05 10:12 | 47.70593 | 8.07227 | 6003 ft | 259 kts | 99° |
| 2026-05-05 10:12 | 47.70337 | 8.09789 | 6005 ft | 243 kts | 99° |
| 2026-05-05 10:12 | 47.70093 | 8.12227 | 6010 ft | 238 kts | 100° |
| 2026-05-05 10:13 | 47.69844 | 8.14682 | 5865 ft | 240 kts | 100° |
| 2026-05-05 10:13 | 47.69597 | 8.17111 | 5608 ft | 236 kts | 99° |
| 2026-05-05 10:13 | 47.69436 | 8.18703 | 5445 ft | 236 kts | 99° |
| 2026-05-05 10:13 | 47.69190 | 8.21109 | 5196 ft | 236 kts | 99° |
| 2026-05-05 10:14 | 47.68942 | 8.23508 | 4946 ft | 234 kts | 101° |
| 2026-05-05 10:14 | 47.68356 | 8.25736 | 4689 ft | 233 kts | 124° |
| 2026-05-05 10:14 | 47.67243 | 8.27482 | 4442 ft | 235 kts | 137° |
| 2026-05-05 10:14 | 47.66156 | 8.28968 | 4215 ft | 233 kts | 137° |
| 2026-05-05 10:15 | 47.64968 | 8.30608 | 4037 ft | 233 kts | 137° |
| 2026-05-05 10:15 | 47.63783 | 8.32240 | 4018 ft | 233 kts | 137° |
| 2026-05-05 10:15 | 47.62591 | 8.33879 | 4020 ft | 234 kts | 137° |
| 2026-05-05 10:15 | 47.61398 | 8.35521 | 4022 ft | 234 kts | 137° |
| 2026-05-05 10:16 | 47.60211 | 8.37153 | 4023 ft | 229 kts | 137° |
| 2026-05-05 10:16 | 47.59080 | 8.38706 | 4017 ft | 213 kts | 136° |
| 2026-05-05 10:16 | 47.58042 | 8.40133 | 4038 ft | 194 kts | 136° |
| 2026-05-05 10:16 | 47.57070 | 8.41467 | 3847 ft | 192 kts | 136° |
| 2026-05-05 10:17 | 47.56101 | 8.42798 | 3595 ft | 190 kts | 137° |
| 2026-05-05 10:17 | 47.55132 | 8.44128 | 3346 ft | 185 kts | 137° |
| 2026-05-05 10:17 | 47.54215 | 8.45385 | 3113 ft | 180 kts | 137° |
| 2026-05-05 10:17 | 47.53492 | 8.46376 | 2921 ft | 174 kts | 137° |
| 2026-05-05 10:18 | 47.52906 | 8.47178 | 2770 ft | 170 kts | 137° |
| 2026-05-05 10:18 | 47.52070 | 8.48326 | 2544 ft | 158 kts | 138° |
| 2026-05-05 10:18 | 47.51291 | 8.49393 | 2310 ft | 151 kts | 138° |
| 2026-05-05 10:18 | 47.50510 | 8.50463 | 2085 ft | 154 kts | 138° |
| 2026-05-05 10:19 | 47.49727 | 8.51532 | 1865 ft | 153 kts | 138° |
| 2026-05-05 10:19 | 47.48960 | 8.52584 | 1643 ft | 147 kts | 139° |
| 2026-05-05 10:19 | 47.48226 | 8.53579 | 1461 ft | 143 kts | 138° |
| 2026-05-05 10:19 | 47.47518 | 8.54544 | 1401 ft | 120 kts | 136° |
| 2026-05-05 10:20 | 47.47095 | 8.55122 | 1398 ft | 58 kts | 137° |
| 2026-05-05 10:20 | 47.46835 | 8.55487 | 1404 ft | 48 kts | 138° |
| 2026-05-05 10:20 | 47.46677 | 8.55634 | 1402 ft | 21 kts | 176° |
| 2026-05-05 10:20 | 47.46557 | 8.55689 | 1401 ft | 17 kts | 165° |
| 2026-05-05 10:21 | 47.46436 | 8.55731 | 1396 ft | 19 kts | 167° |
| 2026-05-05 10:21 | 47.46335 | 8.55823 | 1400 ft | 13 kts | 138° |
| 2026-05-05 10:21 | 47.46271 | 8.55908 | 1401 ft | 12 kts | 138° |
| 2026-05-05 10:21 | 47.46204 | 8.55995 | 1401 ft | 13 kts | 144° |
| 2026-05-05 10:22 | 47.46135 | 8.55999 | 1399 ft | 10 kts | 185° |
| 2026-05-05 10:22 | 47.46064 | 8.55987 | 1400 ft | 11 kts | 188° |
| 2026-05-05 10:22 | 47.45983 | 8.55974 | 1400 ft | 13 kts | 185° |
| 2026-05-05 10:22 | 47.45896 | 8.55932 | 1404 ft | 15 kts | 200° |
| 2026-05-05 10:23 | 47.45787 | 8.55877 | 1400 ft | 18 kts | 193° |
| 2026-05-05 10:23 | 47.45661 | 8.55860 | 1397 ft | 19 kts | 187° |
| 2026-05-05 10:23 | 47.45543 | 8.55840 | 1396 ft | 8 kts | 186° |
| 2026-05-05 10:23 | 47.45506 | 8.55782 | 1398 ft | 9 kts | 260° |
| 2026-05-05 10:24 | 47.45477 | 8.55752 | 1396 ft | 5 kts | 188° |
| 2026-05-05 10:24 | 47.45436 | 8.55748 | 1405 ft | 1 kts | 186° |
| 2026-05-05 10:24 | 47.45431 | 8.55748 | 1406 ft | 0 kts | 186° |